createdAt,value
2022-08-05T00:00:16.639Z,74516.88
2022-08-05T00:02:50.452Z,74520.94
2022-08-05T00:06:02.744Z,74525.03
2022-08-05T00:08:32.753Z,74531.13
2022-08-05T00:11:00.765Z,74541.31
2022-08-05T00:13:38.223Z,74543.34
2022-08-05T00:16:09.487Z,74571.91
2022-08-05T00:18:39.537Z,74567.81
2022-08-05T00:21:08.998Z,74569.84
2022-08-05T00:23:45.658Z,74569.84
2022-08-05T00:26:16.585Z,74573.94
2022-08-05T00:28:45.881Z,74569.84
2022-08-05T00:31:14.350Z,74573.94
2022-08-05T00:34:54.816Z,74580.03
2022-08-05T00:37:11.270Z,74590.22
2022-08-05T00:39:19.637Z,74582.09
2022-08-05T00:41:51.858Z,74586.16
2022-08-05T00:44:30.616Z,74594.31
2022-08-05T00:47:04.165Z,74596.34
2022-08-05T00:49:51.162Z,74598.38
2022-08-05T00:52:28.200Z,74606.53
2022-08-05T00:54:56.626Z,74604.50
2022-08-05T00:57:25.462Z,74606.53
2022-08-05T00:59:59.877Z,74602.47
2022-08-05T01:02:27.777Z,74602.47
2022-08-05T01:04:55.685Z,74602.47
2022-08-05T01:07:31.661Z,74608.56
2022-08-05T01:10:00.425Z,74606.53
2022-08-05T01:12:29.861Z,74612.66
2022-08-05T01:15:04.117Z,74612.66
2022-08-05T01:17:43.942Z,74624.88
2022-08-05T01:20:22.328Z,74639.13
2022-08-05T01:23:14.244Z,74645.25
2022-08-05T01:25:54.162Z,74657.47
2022-08-05T01:28:39.776Z,74655.44
2022-08-05T01:31:12.028Z,74651.38
2022-08-05T01:33:49.286Z,74647.28
2022-08-05T01:36:28.202Z,74647.28
2022-08-05T01:39:01.047Z,74647.28
2022-08-05T01:41:33.404Z,74647.28
2022-08-05T01:44:03.677Z,74639.13
2022-08-05T01:46:43.184Z,74647.28
2022-08-05T01:49:22.901Z,74653.41
2022-08-05T01:51:58.383Z,74659.53
2022-08-05T01:54:33.161Z,74661.56
2022-08-05T01:58:29.945Z,74665.63
2022-08-05T01:59:57.708Z,74665.63
2022-08-05T02:02:29.423Z,74663.59
2022-08-05T02:05:03.067Z,74665.63
2022-08-05T02:07:33.646Z,74675.81
2022-08-05T02:10:03.723Z,74688.06
2022-08-05T02:12:38.252Z,74696.19
2022-08-05T02:15:12.422Z,74696.19
2022-08-05T02:18:33.298Z,74690.09
2022-08-05T02:20:50.647Z,74692.13
2022-08-05T02:23:23.693Z,74694.16
2022-08-05T02:25:54.298Z,74696.19
2022-08-05T02:28:28.889Z,74696.19
2022-08-05T02:31:07.499Z,74704.34
2022-08-05T02:33:42.048Z,74708.44
2022-08-05T02:36:15.356Z,74710.47
2022-08-05T02:38:53.140Z,74716.59
2022-08-05T02:41:23.626Z,74708.44
2022-08-05T02:44:02.951Z,74708.44
2022-08-05T02:46:53.272Z,74706.41
2022-08-05T02:49:36.644Z,74704.34
2022-08-05T02:52:11.629Z,74702.31
2022-08-05T02:54:50.914Z,74704.34
2022-08-05T02:58:12.113Z,74706.41
2022-08-05T03:00:13.711Z,74706.41
2022-08-05T03:02:45.235Z,74708.44
2022-08-05T03:05:14.875Z,74708.44
2022-08-05T03:08:01.737Z,74722.69
2022-08-05T03:10:32.280Z,74724.75
2022-08-05T03:15:28.132Z,74736.97
2022-08-05T03:17:58.051Z,74739.00
2022-08-05T03:20:27.783Z,74734.94
2022-08-05T03:22:57.765Z,74736.97
2022-08-05T03:25:33.343Z,74730.84
2022-08-05T03:28:18.884Z,74728.81
2022-08-05T03:30:48.873Z,74732.88
2022-08-05T03:33:19.677Z,74728.81
2022-08-05T03:35:49.893Z,74739.00
2022-08-05T03:38:32.916Z,74755.31
2022-08-05T03:41:08.417Z,74757.34
2022-08-05T03:44:08.368Z,74757.34
2022-08-05T03:46:29.526Z,74751.22
2022-08-05T03:49:01.930Z,74753.28
2022-08-05T03:52:39.199Z,74757.34
2022-08-05T03:55:51.091Z,74765.50
2022-08-05T03:57:41.122Z,74763.47
2022-08-05T04:00:12.385Z,74771.59
2022-08-05T04:02:58.696Z,74763.47
2022-08-05T04:05:34.470Z,74765.50
2022-08-05T04:08:05.785Z,74761.41
2022-08-05T04:10:44.754Z,74759.38
2022-08-05T04:13:12.965Z,74759.38
2022-08-05T04:15:52.834Z,74753.28
2022-08-05T04:18:29.618Z,74757.34
2022-08-05T04:20:59.294Z,74753.28
2022-08-05T04:24:05.305Z,74759.38
2022-08-05T04:26:17.541Z,74751.22
2022-08-05T04:28:51.152Z,74741.03
2022-08-05T04:31:20.529Z,74741.03
2022-08-05T04:34:17.011Z,74741.03
2022-08-05T04:36:50.254Z,74741.03
2022-08-05T04:39:18.581Z,74741.03
2022-08-05T04:41:48.210Z,74736.97
2022-08-05T04:44:21.514Z,74728.81
2022-08-05T04:46:58.428Z,74718.63
2022-08-05T04:49:38.446Z,74712.50
2022-08-05T04:52:15.968Z,74706.41
2022-08-05T04:54:43.812Z,74700.28
2022-08-05T04:57:11.656Z,74694.16
2022-08-05T04:59:40.855Z,74679.91
2022-08-05T05:02:37.369Z,74675.81
2022-08-05T05:05:01.931Z,74673.78
2022-08-05T05:07:35.579Z,74667.69
2022-08-05T05:10:06.531Z,74663.59
2022-08-05T05:12:34.574Z,74653.41
2022-08-05T05:15:05.997Z,74651.38
2022-08-05T05:17:56.445Z,74647.28
2022-08-05T05:20:28.457Z,74631.00
2022-08-05T05:22:58.666Z,74618.75
2022-08-05T05:25:33.005Z,74610.63
2022-08-05T05:28:09.564Z,74594.31
2022-08-05T05:30:37.993Z,74592.28
2022-08-05T05:33:15.809Z,74582.09
2022-08-05T05:35:46.793Z,74569.84
2022-08-05T05:38:27.008Z,74569.84
2022-08-05T05:40:57.090Z,74563.75
2022-08-05T05:43:54.247Z,74571.91
2022-08-05T05:46:17.203Z,74553.56
2022-08-05T05:48:48.547Z,74549.47
2022-08-05T05:51:23.852Z,74545.41
2022-08-05T05:53:58.591Z,74537.25
2022-08-05T05:56:32.544Z,74520.94
2022-08-05T05:59:05.213Z,74508.72
2022-08-05T06:01:37.728Z,74500.56
2022-08-05T06:04:07.953Z,74488.34
2022-08-05T06:06:36.226Z,74476.13
2022-08-05T06:09:07.615Z,74463.88
2022-08-05T06:11:39.353Z,74449.63
2022-08-05T06:14:07.454Z,74441.47
2022-08-05T06:16:37.320Z,74437.41
2022-08-05T06:19:07.397Z,74429.25
2022-08-05T06:21:38.794Z,74404.78
2022-08-05T06:24:12.780Z,74398.69
2022-08-05T06:26:51.613Z,74384.41
2022-08-05T06:29:23.527Z,74370.16
2022-08-05T06:31:53.050Z,74364.03
2022-08-05T06:34:20.973Z,74357.91
2022-08-05T06:36:57.657Z,74357.91
2022-08-05T06:39:28.240Z,74353.84
2022-08-05T06:41:58.974Z,74349.78
2022-08-05T06:44:27.215Z,74337.53
2022-08-05T06:46:55.593Z,74306.97
2022-08-05T06:50:00.200Z,74300.88
2022-08-05T06:52:36.773Z,74292.72
2022-08-05T06:55:02.349Z,74272.34
2022-08-05T06:58:02.336Z,74247.88
2022-08-05T07:00:22.143Z,74223.44
2022-08-05T07:02:53.919Z,74211.22
2022-08-05T07:05:27.837Z,74207.13
2022-08-05T07:08:10.826Z,74196.94
2022-08-05T07:10:52.535Z,74192.88
2022-08-05T07:13:58.382Z,74194.91
2022-08-05T07:17:58.903Z,74198.97
2022-08-05T07:22:28.922Z,74178.59
2022-08-05T07:25:22.922Z,74166.38
2022-08-05T07:27:58.740Z,74150.06
2022-08-05T07:30:33.124Z,74137.84
2022-08-05T07:33:04.990Z,74123.59
2022-08-05T07:36:04.716Z,74105.25
2022-08-05T07:38:33.910Z,74101.16
2022-08-05T07:42:08.363Z,74080.78
2022-08-05T07:43:59.437Z,74064.50
2022-08-05T07:46:28.906Z,74033.94
2022-08-05T07:49:01.471Z,74017.63
2022-08-05T07:51:41.065Z,74007.44
2022-08-05T07:54:23.212Z,74011.53
2022-08-05T07:57:01.913Z,74015.59
2022-08-05T07:59:44.226Z,73999.28
2022-08-05T08:02:17.080Z,73974.84
2022-08-05T08:04:47.097Z,73954.47
2022-08-05T08:07:15.604Z,73954.47
2022-08-05T08:09:43.920Z,73925.94
2022-08-05T08:12:37.378Z,73901.50
2022-08-05T08:15:04.250Z,73891.31
2022-08-05T08:17:33.050Z,73866.84
2022-08-05T08:20:21.790Z,73840.38
2022-08-05T08:22:54.113Z,73830.19
2022-08-05T08:25:26.810Z,73797.59
2022-08-05T08:28:18.241Z,73797.59
2022-08-05T08:30:49.924Z,73758.88
2022-08-05T08:33:19.133Z,73738.50
2022-08-05T08:35:53.012Z,73714.03
2022-08-05T08:38:35.436Z,73699.78
2022-08-05T08:41:09.212Z,73709.97
2022-08-05T08:45:23.002Z,73716.09
2022-08-05T08:46:30.483Z,73695.72
2022-08-05T08:50:04.101Z,73687.56
2022-08-05T08:52:05.933Z,73671.25
2022-08-05T08:54:38.719Z,73661.06
2022-08-05T08:57:13.461Z,73654.97
2022-08-05T08:59:47.466Z,73632.56
2022-08-05T09:02:21.216Z,73620.34
2022-08-05T09:05:16.297Z,73581.63
2022-08-05T09:07:56.838Z,73563.28
2022-08-05T09:10:27.702Z,73563.28
2022-08-05T09:13:04.503Z,73522.53
2022-08-05T09:15:37.102Z,73494.03
2022-08-05T09:18:09.404Z,73459.38
2022-08-05T09:20:38.400Z,73436.97
2022-08-05T09:23:18.766Z,73396.22
2022-08-05T09:26:02.704Z,73369.75
2022-08-05T09:28:33.818Z,73375.88
2022-08-05T09:31:22.856Z,73373.81
2022-08-05T09:33:58.495Z,73345.31
2022-08-05T09:36:54.366Z,73304.56
2022-08-05T09:39:27.774Z,73298.44
2022-08-05T09:42:13.591Z,73245.47
2022-08-05T09:44:56.084Z,73219.00
2022-08-05T09:47:26.163Z,73243.44
2022-08-05T09:50:02.337Z,73280.13
2022-08-05T09:52:34.093Z,73280.13
2022-08-05T09:55:55.360Z,73241.41
2022-08-05T09:57:54.589Z,73229.19
2022-08-05T10:00:26.827Z,73219.00
2022-08-05T10:02:58.398Z,73233.25
2022-08-05T10:05:32.832Z,73225.13
2022-08-05T10:08:37.061Z,73202.69
2022-08-05T10:10:54.459Z,73153.81
2022-08-05T10:13:47.212Z,73123.25
2022-08-05T10:16:30.255Z,73090.66
2022-08-05T10:19:00.672Z,73082.53
2022-08-05T10:21:35.231Z,73060.13
2022-08-05T10:24:11.045Z,73033.63
2022-08-05T10:26:49.131Z,73033.63
2022-08-05T10:30:05.700Z,72992.91
2022-08-05T10:32:54.654Z,72996.97
2022-08-05T10:35:01.152Z,72948.09
2022-08-05T10:37:44.315Z,72946.03
2022-08-05T10:40:28.031Z,72923.63
2022-08-05T10:43:02.301Z,72917.53
2022-08-05T10:45:40.518Z,72939.94
2022-08-05T10:48:39.587Z,72939.94
2022-08-05T10:51:23.198Z,72923.63
2022-08-05T10:54:05.995Z,72917.53
2022-08-05T10:56:53.386Z,72931.78
2022-08-05T11:00:03.195Z,72933.81
2022-08-05T11:02:34.749Z,72931.78
2022-08-05T11:05:07.017Z,72933.81
2022-08-05T11:08:03.298Z,72923.63
2022-08-05T11:10:27.534Z,72915.50
2022-08-05T11:12:57.020Z,72882.91
2022-08-05T11:16:01.008Z,72829.94
2022-08-05T11:18:34.091Z,72793.28
2022-08-05T11:21:11.183Z,72781.06
2022-08-05T11:24:02.733Z,72768.84
2022-08-05T11:26:34.295Z,72793.28
2022-08-05T11:29:12.196Z,72829.94
2022-08-05T11:31:54.040Z,72876.78
2022-08-05T11:34:38.680Z,72895.13
2022-08-05T11:38:28.778Z,72878.81
2022-08-05T11:40:03.238Z,72854.38
2022-08-05T11:42:38.127Z,72803.47
2022-08-05T11:45:23.063Z,72752.53
2022-08-05T11:47:59.015Z,72689.41
2022-08-05T11:50:27.335Z,72726.06
2022-08-05T11:52:58.195Z,72701.63
2022-08-05T11:55:32.360Z,72754.59
2022-08-05T11:58:10.321Z,72724.03
2022-08-05T12:00:41.631Z,72683.28
2022-08-05T12:03:24.006Z,72691.44
2022-08-05T12:06:02.765Z,72728.09
2022-08-05T12:08:32.899Z,72687.38
2022-08-05T12:11:05.543Z,72748.47
2022-08-05T12:13:49.313Z,72715.88
2022-08-05T12:16:25.576Z,72703.66
2022-08-05T12:18:56.045Z,72689.41
2022-08-05T12:21:26.951Z,72681.25
2022-08-05T12:24:04.921Z,72634.41
2022-08-05T12:26:34.503Z,72662.94
2022-08-05T12:29:05.532Z,72628.31
2022-08-05T12:31:44.893Z,72622.19
2022-08-05T12:34:20.539Z,72630.34
2022-08-05T12:36:52.305Z,72669.03
2022-08-05T12:39:20.495Z,72618.13
2022-08-05T12:41:48.782Z,72601.81
2022-08-05T12:44:28.689Z,72630.34
2022-08-05T12:47:02.173Z,72644.59
2022-08-05T12:50:04.311Z,72593.69
2022-08-05T12:52:37.740Z,72593.69
2022-08-05T12:55:28.965Z,72548.88
2022-08-05T12:58:51.350Z,72540.72
2022-08-05T13:02:00.418Z,72487.75
2022-08-05T13:03:42.371Z,72540.72
2022-08-05T13:06:17.135Z,72516.28
2022-08-05T13:08:50.695Z,72514.25
2022-08-05T13:11:59.801Z,72577.38
2022-08-05T13:14:19.896Z,72601.81
2022-08-05T13:16:56.406Z,72589.59
2022-08-05T13:19:26.391Z,72561.09
2022-08-05T13:21:56.047Z,72516.28
2022-08-05T13:24:36.405Z,72565.16
2022-08-05T13:27:17.212Z,72573.31
2022-08-05T13:30:31.629Z,72532.56
2022-08-05T13:32:42.165Z,72528.50
2022-08-05T13:35:22.422Z,72522.38
2022-08-05T13:38:07.257Z,72561.09
2022-08-05T13:40:51.968Z,72542.75
2022-08-05T13:43:22.212Z,72528.50
2022-08-05T13:45:50.801Z,72514.25
2022-08-05T13:48:58.712Z,72459.25
2022-08-05T13:51:08.605Z,72455.19
2022-08-05T13:53:47.764Z,72471.47
2022-08-05T13:56:18.927Z,72442.97
2022-08-05T13:58:52.878Z,72465.38
2022-08-05T14:01:27.461Z,72481.66
2022-08-05T14:04:28.570Z,72471.47
2022-08-05T14:06:58.615Z,72467.41
2022-08-05T14:09:46.079Z,72479.63
2022-08-05T14:12:18.178Z,72479.63
2022-08-05T14:15:00.470Z,72467.41
2022-08-05T14:17:34.083Z,72483.69
2022-08-05T14:20:04.502Z,72491.84
2022-08-05T14:22:36.053Z,72508.13
2022-08-05T14:25:06.426Z,72469.44
2022-08-05T14:27:48.424Z,72506.09
2022-08-05T14:30:20.429Z,72447.03
2022-08-05T14:32:49.473Z,72459.25
2022-08-05T14:35:22.979Z,72477.59
2022-08-05T14:37:55.471Z,72508.13
2022-08-05T14:40:24.590Z,72528.50
2022-08-05T14:42:52.663Z,72514.25
2022-08-05T14:45:20.658Z,72516.28
2022-08-05T14:48:04.093Z,72546.84
2022-08-05T14:50:36.054Z,72565.16
2022-08-05T14:53:08.899Z,72593.69
2022-08-05T14:55:39.154Z,72603.84
2022-08-05T14:58:11.321Z,72618.13
2022-08-05T15:00:58.091Z,72620.16
2022-08-05T15:03:27.109Z,72634.41
2022-08-05T15:06:07.403Z,72646.63
2022-08-05T15:08:59.046Z,72673.09
2022-08-05T15:11:51.956Z,72675.16
2022-08-05T15:14:34.352Z,72689.41
2022-08-05T15:17:05.458Z,72722.00
2022-08-05T15:19:53.609Z,72748.47
2022-08-05T15:22:27.062Z,72756.63
2022-08-05T15:24:55.950Z,72756.63
2022-08-05T15:27:25.502Z,72768.84
2022-08-05T15:29:56.819Z,72797.34
2022-08-05T15:32:28.580Z,72797.34
2022-08-05T15:34:56.948Z,72821.78
2022-08-05T15:38:32.904Z,72838.09
2022-08-05T15:40:58.326Z,72838.09
2022-08-05T15:43:12.665Z,72825.88
2022-08-05T15:45:45.982Z,72829.94
2022-08-05T15:48:14.997Z,72860.50
2022-08-05T15:50:45.569Z,72870.69
2022-08-05T15:53:15.583Z,72858.47
2022-08-05T15:56:02.529Z,72866.59
2022-08-05T15:58:35.396Z,72870.69
2022-08-05T16:01:16.332Z,72868.66
2022-08-05T16:03:50.333Z,72891.03
2022-08-05T16:06:20.921Z,72907.34
2022-08-05T16:08:55.271Z,72899.19
2022-08-05T16:11:42.366Z,72913.44
2022-08-05T16:14:17.159Z,72925.69
2022-08-05T16:16:47.564Z,72931.78
2022-08-05T16:19:18.900Z,72948.09
2022-08-05T16:21:59.386Z,72944.00
2022-08-05T16:24:39.738Z,72956.22
2022-08-05T16:27:08.757Z,72964.38
2022-08-05T16:29:37.735Z,72982.72
2022-08-05T16:32:06.690Z,72996.97
2022-08-05T16:34:39.285Z,73013.25
2022-08-05T16:38:03.269Z,73021.41
2022-08-05T16:40:06.458Z,73017.34
2022-08-05T16:42:35.975Z,73033.63
2022-08-05T16:45:05.935Z,73037.72
2022-08-05T16:47:55.616Z,73041.78
2022-08-05T16:50:26.751Z,73045.84
2022-08-05T16:52:56.389Z,73060.13
2022-08-05T16:55:25.854Z,73066.22
2022-08-05T16:58:01.313Z,73072.34
2022-08-05T17:00:34.424Z,73070.28
2022-08-05T17:03:03.740Z,73080.47
2022-08-05T17:05:37.606Z,73094.75
2022-08-05T17:08:05.949Z,73106.97
2022-08-05T17:10:37.713Z,73106.97
2022-08-05T17:13:05.692Z,73111.03
2022-08-05T17:15:49.033Z,73117.16
2022-08-05T17:18:20.859Z,73127.34
2022-08-05T17:20:48.751Z,73129.38
2022-08-05T17:23:42.001Z,73135.47
2022-08-05T17:26:07.010Z,73151.78
2022-08-05T17:28:36.141Z,73157.88
2022-08-05T17:31:08.439Z,73166.03
2022-08-05T17:33:52.232Z,73168.06
2022-08-05T17:36:33.881Z,73172.16
2022-08-05T17:39:05.111Z,73188.44
2022-08-05T17:42:18.209Z,73194.56
2022-08-05T17:44:40.905Z,73204.75
2022-08-05T17:47:18.942Z,73212.88
2022-08-05T17:49:52.039Z,73219.00
2022-08-05T17:52:31.641Z,73225.13
2022-08-05T17:54:59.758Z,73241.41
2022-08-05T17:57:29.195Z,73253.63
2022-08-05T18:00:03.548Z,73267.91
2022-08-05T18:02:33.077Z,73282.16
2022-08-05T18:05:03.706Z,73292.34
2022-08-05T18:07:41.379Z,73298.44
2022-08-05T18:10:14.094Z,73306.59
2022-08-05T18:12:50.870Z,73316.78
2022-08-05T18:15:19.017Z,73331.03
2022-08-05T18:18:00.796Z,73343.28
2022-08-05T18:20:32.564Z,73353.44
2022-08-05T18:23:09.362Z,73355.50
2022-08-05T18:25:42.756Z,73371.78
2022-08-05T18:28:17.492Z,73375.88
2022-08-05T18:30:50.001Z,73392.16
2022-08-05T18:33:22.414Z,73404.38
2022-08-05T18:36:04.963Z,73408.47
2022-08-05T18:38:36.241Z,73412.53
2022-08-05T18:41:57.138Z,73420.69
2022-08-05T18:43:53.857Z,73420.69
2022-08-05T18:46:22.147Z,73420.69
2022-08-05T18:48:54.779Z,73424.75
2022-08-05T18:52:06.915Z,73424.75
2022-08-05T18:54:31.149Z,73436.97
2022-08-05T18:56:59.924Z,73436.97
2022-08-05T18:59:43.089Z,73453.28
2022-08-05T19:02:28.037Z,73455.31
2022-08-05T19:05:02.561Z,73465.50
2022-08-05T19:07:47.947Z,73477.72
2022-08-05T19:10:16.428Z,73487.91
2022-08-05T19:12:46.072Z,73485.88
2022-08-05T19:15:45.059Z,73496.06
2022-08-05T19:18:09.489Z,73506.25
2022-08-05T19:20:41.457Z,73506.25
2022-08-05T19:24:04.095Z,73514.41
2022-08-05T19:26:01.038Z,73514.41
2022-08-05T19:28:30.250Z,73518.47
2022-08-05T19:31:00.305Z,73534.75
2022-08-05T19:33:35.107Z,73534.75
2022-08-05T19:36:06.297Z,73530.69
2022-08-05T19:38:35.643Z,73526.63
2022-08-05T19:41:06.743Z,73518.47
2022-08-05T19:44:06.019Z,73506.25
2022-08-05T19:46:30.607Z,73506.25
2022-08-05T19:49:03.173Z,73518.47
2022-08-05T19:52:05.860Z,73526.63
2022-08-05T19:54:28.471Z,73526.63
2022-08-05T19:56:59.834Z,73530.69
2022-08-05T20:00:00.784Z,73542.91
2022-08-05T20:02:20.398Z,73538.84
2022-08-05T20:04:48.630Z,73547.00
2022-08-05T20:07:48.107Z,73542.91
2022-08-05T20:10:13.091Z,73555.13
2022-08-05T20:12:48.174Z,73561.25
2022-08-05T20:15:47.885Z,73555.13
2022-08-05T20:18:10.616Z,73571.44
2022-08-05T20:20:57.275Z,73575.50
2022-08-05T20:23:40.102Z,73591.81
2022-08-05T20:26:15.944Z,73595.88
2022-08-05T20:28:45.185Z,73597.91
2022-08-05T20:31:13.169Z,73614.22
2022-08-05T20:33:42.719Z,73618.28
2022-08-05T20:36:11.242Z,73622.38
2022-08-05T20:38:40.764Z,73622.38
2022-08-05T20:41:24.045Z,73624.41
2022-08-05T20:43:58.925Z,73634.59
2022-08-05T20:46:30.628Z,73636.63
2022-08-05T20:49:02.531Z,73644.78
2022-08-05T20:51:34.218Z,73648.84
2022-08-05T20:54:02.319Z,73657.00
2022-08-05T20:56:41.911Z,73661.06
2022-08-05T20:59:19.115Z,73667.19
2022-08-05T21:01:57.382Z,73679.41
2022-08-05T21:04:27.540Z,73685.53
2022-08-05T21:06:55.923Z,73689.59
2022-08-05T21:09:24.079Z,73697.75
2022-08-05T21:12:10.127Z,73707.94
2022-08-05T21:14:39.788Z,73718.13
2022-08-05T21:17:07.780Z,73720.16
2022-08-05T21:19:46.790Z,73720.16
2022-08-05T21:22:21.621Z,73726.28
2022-08-05T21:24:51.520Z,73720.16
2022-08-05T21:27:24.750Z,73728.31
2022-08-05T21:29:54.142Z,73726.28
2022-08-05T21:32:26.694Z,73726.28
2022-08-05T21:35:08.713Z,73732.38
2022-08-05T21:37:53.162Z,73732.38
2022-08-05T21:40:23.209Z,73746.66
2022-08-05T21:42:52.871Z,73750.72
2022-08-05T21:45:25.151Z,73758.88
2022-08-05T21:48:08.220Z,73767.03
2022-08-05T21:50:37.810Z,73769.06
2022-08-05T21:53:16.247Z,73771.09
2022-08-05T21:56:04.371Z,73777.22
2022-08-05T21:58:34.030Z,73783.31
2022-08-05T22:01:02.097Z,73775.16
2022-08-05T22:03:48.789Z,73777.22
2022-08-05T22:06:22.815Z,73779.25
2022-08-05T22:09:01.359Z,73789.44
2022-08-05T22:11:41.580Z,73783.31
2022-08-05T22:14:32.761Z,73789.44
2022-08-05T22:17:03.792Z,73791.47
2022-08-05T22:20:02.227Z,73799.63
2022-08-05T22:22:28.192Z,73807.78
2022-08-05T22:25:20.942Z,73807.78
2022-08-05T22:28:10.386Z,73807.78
2022-08-05T22:30:44.277Z,73809.81
2022-08-05T22:33:56.974Z,73815.91
2022-08-05T22:36:14.724Z,73813.88
2022-08-05T22:38:48.688Z,73803.69
2022-08-05T22:42:04.905Z,73815.91
2022-08-05T22:44:07.145Z,73811.84
2022-08-05T22:46:39.581Z,73824.06
2022-08-05T22:49:23.171Z,73828.16
2022-08-05T22:52:04.612Z,73838.34
2022-08-05T22:54:36.907Z,73850.56
2022-08-05T22:57:05.666Z,73854.63
2022-08-05T22:59:42.564Z,73858.72
2022-08-05T23:02:13.789Z,73866.84
2022-08-05T23:04:51.577Z,73864.81
2022-08-05T23:07:21.915Z,73885.19
2022-08-05T23:09:58.004Z,73903.53
2022-08-05T23:12:32.525Z,73913.72
2022-08-05T23:15:03.111Z,73917.78
2022-08-05T23:17:34.737Z,73930.00
2022-08-05T23:20:16.591Z,73946.31
2022-08-05T23:22:47.177Z,73962.63
2022-08-05T23:25:52.817Z,73974.84
2022-08-05T23:28:07.186Z,73976.88
2022-08-05T23:30:40.614Z,73983.00
2022-08-05T23:33:22.490Z,73993.19
2022-08-05T23:35:55.107Z,73995.22
2022-08-05T23:38:26.059Z,73999.28
2022-08-05T23:40:56.115Z,74009.47
2022-08-05T23:44:03.157Z,74023.75
2022-08-05T23:46:20.226Z,74035.97
2022-08-05T23:48:59.912Z,74056.34
2022-08-05T23:51:51.727Z,74068.56
2022-08-05T23:54:26.049Z,74078.75
2022-08-05T23:57:04.109Z,74097.09
